Time;durP1;ratioP1;P1;durP2;ratioP2;P2;SDS_P1;SDS_P2;PMS_P1;PMS_P2;Temp;Humidity;BMP_temperature;BMP_pressure;BME280_temperature;BME280_humidity;BME280_pressure;Samples;Min_cycle;Max_cycle;Signal;HPM_P1;HPM_P2
2023/01/15 00:01:27;;;;;;;2.40;0.93;;;9.80;76.80;;;;;;5100241;28;20076;-65
2023/01/15 00:03:54;;;;;;;1.63;0.70;;;9.80;76.90;;;;;;5080678;28;20459;-65
2023/01/15 00:06:22;;;;;;;1.38;1.05;;;9.80;77.00;;;;;;5093999;28;20467;-64
2023/01/15 00:08:48;;;;;;;3.28;1.35;;;9.80;77.00;;;;;;5100681;28;20475;-65
2023/01/15 00:11:14;;;;;;;2.20;1.20;;;9.80;76.70;;;;;;5094012;28;20085;-65
2023/01/15 00:13:40;;;;;;;2.20;1.10;;;9.80;76.30;;;;;;5096292;28;20499;-64
2023/01/15 00:16:17;;;;;;;2.90;0.93;;;9.80;76.20;;;;;;5093169;28;20048;-64
2023/01/15 00:18:52;;;;;;;1.27;0.70;;;9.80;76.10;;;;;;5098265;28;20166;-64
2023/01/15 00:21:18;;;;;;;2.05;1.15;;;9.80;76.50;;;;;;5093146;28;20128;-64
2023/01/15 00:29:15;;;;;;;2.67;0.85;;;9.80;76.80;;;;;;5096736;28;20555;-61
2023/01/15 00:31:43;;;;;;;1.98;1.05;;;9.80;76.30;;;;;;5079525;28;20032;-63
2023/01/15 00:34:08;;;;;;;3.90;1.05;;;9.80;76.40;;;;;;5079941;28;20110;-66
2023/01/15 00:36:36;;;;;;;1.40;0.93;;;9.80;76.50;;;;;;5076866;28;20534;-66
2023/01/15 00:39:03;;;;;;;0.73;0.60;;;9.70;76.70;;;;;;5094431;28;20055;-66
2023/01/15 00:41:29;;;;;;;1.75;0.98;;;9.80;77.10;;;;;;5094619;28;20097;-63
2023/01/15 00:43:55;;;;;;;2.83;0.80;;;9.70;77.00;;;;;;5104592;28;20444;-62
2023/01/15 00:46:21;;;;;;;5.05;1.10;;;9.70;76.70;;;;;;5074400;28;20036;-65
2023/01/15 00:48:47;;;;;;;1.85;0.90;;;9.70;76.80;;;;;;5084230;28;20524;-66
2023/01/15 00:51:13;;;;;;;3.28;1.20;;;9.70;76.80;;;;;;5093608;28;20535;-62
2023/01/15 00:53:38;;;;;;;2.38;0.65;;;9.60;77.10;;;;;;5100538;28;20028;-65
2023/01/15 00:56:04;;;;;;;1.38;0.88;;;9.60;76.70;;;;;;5099495;28;20020;-63
2023/01/15 00:58:30;;;;;;;2.50;0.85;;;9.60;76.80;;;;;;5101536;28;20028;-65
2023/01/15 01:00:57;;;;;;;2.60;0.95;;;9.60;77.30;;;;;;5098257;28;20106;-65
2023/01/15 01:03:23;;;;;;;2.45;1.38;;;9.60;76.70;;;;;;5090596;28;20039;-65
2023/01/15 01:05:49;;;;;;;4.15;1.48;;;9.60;75.70;;;;;;5094971;28;20382;-65
2023/01/15 01:08:16;;;;;;;2.83;1.10;;;9.60;75.80;;;;;;5072812;28;20031;-65
2023/01/15 01:10:42;;;;;;;2.30;1.08;;;9.60;75.70;;;;;;5105071;28;20039;-62
2023/01/15 01:13:08;;;;;;;2.00;0.80;;;9.60;75.70;;;;;;5106901;28;20031;-62
2023/01/15 01:15:35;;;;;;;1.50;1.10;;;9.60;75.70;;;;;;5091097;28;20055;-65
2023/01/15 01:18:02;;;;;;;2.95;1.10;;;9.60;75.60;;;;;;5096343;28;20629;-65
2023/01/15 01:20:28;;;;;;;11.82;1.05;;;9.60;75.30;;;;;;5093745;28;20038;-65
2023/01/15 01:22:54;;;;;;;2.38;1.10;;;9.60;74.90;;;;;;5095019;28;20343;-65
2023/01/15 01:25:19;;;;;;;4.35;0.98;;;9.60;75.00;;;;;;5102029;28;20126;-66
2023/01/15 01:27:45;;;;;;;4.32;0.82;;;9.60;75.60;;;;;;5077713;28;20177;-65
2023/01/15 01:30:12;;;;;;;6.38;0.75;;;9.60;75.00;;;;;;5093595;28;20083;-66
2023/01/15 01:32:38;;;;;;;5.25;0.70;;;9.50;74.70;;;;;;5091711;28;20020;-65
2023/01/15 01:35:04;;;;;;;4.90;1.30;;;9.50;74.40;;;;;;5106165;28;20034;-62
2023/01/15 01:37:30;;;;;;;1.42;0.80;;;9.50;74.00;;;;;;5091385;28;20077;-62
2023/01/15 01:39:56;;;;;;;3.03;0.93;;;9.50;74.30;;;;;;5092501;28;20036;-66
2023/01/15 01:42:21;;;;;;;4.10;0.77;;;9.50;74.40;;;;;;5094933;28;20038;-63
2023/01/15 01:44:50;;;;;;;11.40;1.63;;;9.50;74.00;;;;;;5095919;28;20130;-64
2023/01/15 01:47:28;;;;;;;1.88;0.65;;;9.50;74.10;;;;;;5108233;28;20011;-62
2023/01/15 01:49:58;;;;;;;2.15;0.80;;;9.50;74.10;;;;;;5104734;28;20031;-62
2023/01/15 01:52:35;;;;;;;3.47;0.82;;;9.40;74.20;;;;;;5068308;28;20050;-66
2023/01/15 01:55:02;;;;;;;4.40;0.80;;;9.40;74.10;;;;;;5107753;28;20059;-66
2023/01/15 01:57:28;;;;;;;4.25;1.35;;;9.50;74.50;;;;;;5088110;28;20028;-65
2023/01/15 01:59:55;;;;;;;7.63;1.05;;;9.40;74.30;;;;;;5082155;28;20063;-65
2023/01/15 02:02:22;;;;;;;1.73;1.00;;;9.40;74.20;;;;;;5090976;28;20024;-62
2023/01/15 02:04:48;;;;;;;3.22;0.95;;;9.40;74.50;;;;;;5085337;28;20047;-66
2023/01/15 02:07:14;;;;;;;2.00;0.40;;;9.40;74.10;;;;;;5107824;28;20417;-63
2023/01/15 02:09:39;;;;;;;1.48;0.90;;;9.40;74.20;;;;;;5067732;28;20123;-65
2023/01/15 02:12:18;;;;;;;7.35;1.38;;;9.40;74.20;;;;;;5110369;28;20055;-66
2023/01/15 02:14:52;;;;;;;3.95;1.20;;;9.40;73.90;;;;;;5095977;28;20036;-65
2023/01/15 02:17:26;;;;;;;1.52;0.60;;;9.40;74.20;;;;;;5091103;28;20502;-66
2023/01/15 02:20:22;;;;;;;5.65;1.00;;;9.40;73.90;;;;;;5092055;28;20111;-65
2023/01/15 02:23:19;;;;;;;2.78;0.85;;;9.40;74.00;;;;;;5092842;28;20023;-65
2023/01/15 02:26:07;;;;;;;3.28;1.05;;;9.30;73.90;;;;;;5091512;28;20039;-66
2023/01/15 02:28:37;;;;;;;2.80;0.80;;;9.30;73.70;;;;;;5081500;28;20276;-66
2023/01/15 02:31:39;;;;;;;4.63;1.23;;;9.30;73.90;;;;;;5100853;28;20027;-65
2023/01/15 02:34:07;;;;;;;3.40;1.35;;;9.30;73.80;;;;;;5086722;28;20051;-66
2023/01/15 02:36:38;;;;;;;2.63;1.45;;;9.30;73.90;;;;;;5091682;28;20049;-65
2023/01/15 02:39:08;;;;;;;4.20;0.90;;;9.30;74.10;;;;;;5074068;28;20052;-62
2023/01/15 02:41:40;;;;;;;1.77;0.65;;;9.30;74.30;;;;;;5099121;28;20127;-63
2023/01/15 02:44:08;;;;;;;2.83;0.95;;;9.30;74.10;;;;;;5081469;28;20038;-63
2023/01/15 02:46:36;;;;;;;1.67;1.02;;;9.20;74.10;;;;;;5094691;28;20475;-61
2023/01/15 02:49:06;;;;;;;4.07;1.33;;;9.20;74.10;;;;;;5098876;28;20089;-62
2023/01/15 02:51:40;;;;;;;4.38;1.13;;;9.20;74.70;;;;;;5097552;28;20107;-61
2023/01/15 02:54:09;;;;;;;3.20;0.77;;;9.20;73.60;;;;;;5098017;28;20031;-62
2023/01/15 02:56:37;;;;;;;3.60;1.05;;;9.10;73.60;;;;;;5098224;28;20455;-62
2023/01/15 02:59:09;;;;;;;2.75;0.90;;;9.10;73.90;;;;;;5094900;28;20020;-62
2023/01/15 03:01:41;;;;;;;2.38;0.88;;;9.10;73.90;;;;;;5078029;28;20404;-62
2023/01/15 03:04:14;;;;;;;2.13;0.88;;;9.10;74.00;;;;;;5073380;28;20036;-62
2023/01/15 03:06:43;;;;;;;1.73;0.70;;;9.10;73.70;;;;;;5094111;28;20030;-62
2023/01/15 03:09:09;;;;;;;6.43;1.20;;;9.00;73.80;;;;;;5107686;28;20504;-61
2023/01/15 03:11:39;;;;;;;4.82;0.88;;;9.10;74.00;;;;;;5109336;28;20016;-63
2023/01/15 03:14:21;;;;;;;1.05;0.80;;;9.10;73.90;;;;;;5106736;28;20039;-62
2023/01/15 03:16:51;;;;;;;1.13;0.77;;;9.10;74.00;;;;;;5059915;28;20032;-62
2023/01/15 03:19:35;;;;;;;3.28;1.23;;;9.00;74.00;;;;;;5101278;28;20055;-62
2023/01/15 03:22:27;;;;;;;1.30;0.98;;;9.10;74.20;;;;;;5099441;28;20055;-62
2023/01/15 03:25:10;;;;;;;1.20;0.63;;;9.10;74.10;;;;;;5102383;28;20172;-65
2023/01/15 03:27:36;;;;;;;3.17;0.98;;;9.00;74.20;;;;;;5090230;28;20028;-65
2023/01/15 03:30:13;;;;;;;1.90;0.75;;;9.00;74.30;;;;;;5106475;28;20398;-65
2023/01/15 03:32:39;;;;;;;2.50;1.00;;;9.00;74.20;;;;;;5104798;28;20489;-65
2023/01/15 03:35:07;;;;;;;2.50;1.17;;;9.00;74.40;;;;;;5088488;28;20024;-62
2023/01/15 03:37:33;;;;;;;4.07;1.35;;;9.00;74.10;;;;;;5107615;28;20446;-62
2023/01/15 03:40:00;;;;;;;10.27;1.25;;;9.00;74.00;;;;;;5102069;28;20047;-66
2023/01/15 03:42:32;;;;;;;1.73;1.00;;;8.90;74.10;;;;;;5089221;28;20119;-65
2023/01/15 03:45:30;;;;;;;1.48;0.82;;;8.90;74.20;;;;;;5099542;28;20028;-66
2023/01/15 03:47:58;;;;;;;1.50;0.73;;;9.00;74.20;;;;;;5082668;28;20095;-65
2023/01/15 03:50:48;;;;;;;4.13;1.10;;;8.90;74.20;;;;;;5107397;28;20096;-66
2023/01/15 03:53:19;;;;;;;1.27;0.70;;;9.00;74.10;;;;;;5111229;28;20484;-64
2023/01/15 03:56:22;;;;;;;2.63;0.98;;;8.90;74.10;;;;;;5111223;28;20382;-64
2023/01/15 03:59:32;;;;;;;1.65;1.00;;;9.00;74.10;;;;;;5108120;28;20043;-65
2023/01/15 04:02:00;;;;;;;8.00;1.42;;;8.90;73.60;;;;;;5046129;28;20036;-65
2023/01/15 04:04:27;;;;;;;3.50;0.63;;;8.90;74.00;;;;;;5092425;28;20073;-65
2023/01/15 04:06:54;;;;;;;1.90;0.77;;;8.90;74.10;;;;;;5085766;28;20073;-65
2023/01/15 04:09:21;;;;;;;6.20;1.45;;;8.90;74.20;;;;;;5111647;28;20072;-65
2023/01/15 04:11:47;;;;;;;4.05;0.95;;;8.90;74.10;;;;;;5092146;28;20091;-65
2023/01/15 04:14:14;;;;;;;2.35;0.57;;;8.80;74.00;;;;;;5078262;28;20025;-64
2023/01/15 04:16:40;;;;;;;4.15;1.17;;;8.80;74.10;;;;;;5109726;28;20051;-64
2023/01/15 04:19:05;;;;;;;1.88;1.02;;;8.90;74.20;;;;;;5106787;28;20071;-65
2023/01/15 04:21:31;;;;;;;2.15;1.33;;;8.90;74.20;;;;;;5083118;28;20082;-65
2023/01/15 04:23:57;;;;;;;4.15;1.50;;;8.80;74.10;;;;;;5092520;28;20107;-66
2023/01/15 04:26:23;;;;;;;2.05;1.00;;;8.80;74.20;;;;;;5101351;28;20256;-64
2023/01/15 04:28:48;;;;;;;6.68;0.93;;;8.80;74.20;;;;;;5074425;28;20040;-65
2023/01/15 04:31:15;;;;;;;5.25;0.95;;;8.80;74.10;;;;;;5099029;28;20390;-65
2023/01/15 04:33:41;;;;;;;4.97;1.25;;;8.80;74.10;;;;;;5074391;28;20116;-66
2023/01/15 04:36:07;;;;;;;5.25;1.73;;;8.70;74.00;;;;;;5107605;28;20508;-65
2023/01/15 04:38:35;;;;;;;1.13;0.73;;;8.70;74.10;;;;;;5082297;28;20028;-65
2023/01/15 04:46:30;;;;;;;2.38;0.98;;;8.70;74.20;;;;;;5105879;28;20082;-65
2023/01/15 04:48:56;;;;;;;1.40;0.75;;;8.80;74.20;;;;;;5075703;28;20028;-66
2023/01/15 04:51:21;;;;;;;8.20;1.00;;;8.80;74.10;;;;;;5086311;28;20473;-66
2023/01/15 04:53:47;;;;;;;2.97;0.93;;;8.80;73.80;;;;;;5076483;28;20070;-66
2023/01/15 04:56:13;;;;;;;1.58;0.90;;;8.70;73.90;;;;;;5102494;28;20473;-65
2023/01/15 04:58:39;;;;;;;2.08;0.75;;;8.70;73.90;;;;;;5092227;28;20053;-66
2023/01/15 05:01:16;;;;;;;5.25;1.02;;;8.70;74.00;;;;;;5099096;28;21499;-66
2023/01/15 05:03:42;;;;;;;2.15;1.10;;;8.70;73.80;;;;;;5090836;28;20499;-65
2023/01/15 05:06:09;;;;;;;0.90;0.63;;;8.70;73.90;;;;;;5088911;28;20147;-66
2023/01/15 05:08:35;;;;;;;2.15;1.10;;;8.70;73.90;;;;;;5098703;28;20443;-66
2023/01/15 05:11:03;;;;;;;3.80;1.48;;;8.70;73.60;;;;;;5109873;28;20027;-66
2023/01/15 05:13:32;;;;;;;2.03;1.10;;;8.70;73.50;;;;;;5109697;28;20055;-65
2023/01/15 05:16:10;;;;;;;5.00;1.35;;;8.70;73.50;;;;;;5087879;28;20093;-66
2023/01/15 05:18:36;;;;;;;1.83;0.88;;;8.70;73.70;;;;;;5112067;28;20031;-66
2023/01/15 05:21:03;;;;;;;1.88;0.85;;;8.70;73.80;;;;;;5110127;28;20038;-64
2023/01/15 05:23:28;;;;;;;2.83;0.77;;;8.70;73.60;;;;;;5076070;28;20028;-65
2023/01/15 05:25:54;;;;;;;0.50;0.40;;;8.70;73.30;;;;;;5106122;28;20365;-62
2023/01/15 05:28:20;;;;;;;4.68;1.23;;;8.70;73.50;;;;;;5096187;28;20018;-62
2023/01/15 05:30:45;;;;;;;3.15;0.98;;;8.70;73.20;;;;;;5098612;28;20494;-62
2023/01/15 05:33:11;;;;;;;3.80;1.02;;;8.60;72.90;;;;;;5104574;28;20394;-62
2023/01/15 05:35:36;;;;;;;4.35;1.15;;;8.60;72.90;;;;;;5103094;28;20024;-63
2023/01/15 05:38:05;;;;;;;1.00;0.70;;;8.60;73.30;;;;;;5102987;28;20078;-63
2023/01/15 05:40:31;;;;;;;2.90;1.05;;;8.60;73.60;;;;;;5099998;28;20028;-62
2023/01/15 05:42:57;;;;;;;2.40;0.88;;;8.60;74.30;;;;;;5110062;28;20491;-62
2023/01/15 05:45:22;;;;;;;1.50;0.75;;;8.60;73.60;;;;;;5083887;28;20035;-62
2023/01/15 05:47:48;;;;;;;1.10;0.80;;;8.50;73.60;;;;;;5109385;28;20032;-61
2023/01/15 05:50:14;;;;;;;1.85;1.38;;;8.50;73.80;;;;;;5087596;28;20111;-62
2023/01/15 05:52:40;;;;;;;1.58;0.93;;;8.50;73.80;;;;;;5109911;28;20059;-62
2023/01/15 05:55:06;;;;;;;9.93;1.08;;;8.50;73.70;;;;;;5103979;28;20080;-62
2023/01/15 05:57:31;;;;;;;6.03;1.02;;;8.50;74.20;;;;;;5093056;28;20028;-62
2023/01/15 05:59:58;;;;;;;1.45;0.93;;;8.50;73.30;;;;;;5099150;28;20062;-62
2023/01/15 06:02:23;;;;;;;3.70;0.88;;;8.50;73.50;;;;;;5097459;28;20469;-61
2023/01/15 06:04:49;;;;;;;0.93;0.68;;;8.50;73.50;;;;;;5070532;28;20032;-62
2023/01/15 06:07:16;;;;;;;5.13;1.30;;;8.50;73.30;;;;;;5090373;28;20024;-62
2023/01/15 06:09:43;;;;;;;1.35;0.70;;;8.50;73.30;;;;;;5090787;28;20093;-62
2023/01/15 06:12:09;;;;;;;3.72;0.98;;;8.50;73.30;;;;;;5092298;28;20051;-65
2023/01/15 06:14:34;;;;;;;1.45;0.70;;;8.40;73.20;;;;;;5089137;28;20020;-65
2023/01/15 06:17:00;;;;;;;5.25;1.33;;;8.40;72.70;;;;;;5099037;28;20040;-65
2023/01/15 06:19:26;;;;;;;5.45;1.15;;;8.40;72.90;;;;;;5099284;28;20542;-62
2023/01/15 06:21:51;;;;;;;4.05;0.75;;;8.40;72.60;;;;;;5110174;28;20446;-65
2023/01/15 06:24:18;;;;;;;4.43;1.42;;;8.40;72.70;;;;;;5108518;28;20656;-62
2023/01/15 06:26:44;;;;;;;5.22;1.42;;;8.40;72.60;;;;;;5090428;28;20024;-62
2023/01/15 06:29:10;;;;;;;2.03;1.05;;;8.40;72.50;;;;;;5089895;28;20035;-61
2023/01/15 06:31:36;;;;;;;4.40;1.15;;;8.30;72.70;;;;;;5090072;28;20485;-62
2023/01/15 06:34:02;;;;;;;0.80;0.80;;;8.30;72.80;;;;;;5071969;28;20043;-62
2023/01/15 06:36:28;;;;;;;2.92;1.00;;;8.30;72.50;;;;;;5094179;28;20031;-63
2023/01/15 06:38:54;;;;;;;3.33;1.17;;;8.30;72.70;;;;;;5093859;28;20032;-62
2023/01/15 06:47:20;;;;;;;0.73;0.38;;;8.30;72.60;;;;;;5093432;28;20066;-63
2023/01/15 06:49:50;;;;;;;2.35;1.05;;;8.20;72.50;;;;;;5100624;28;20028;-68
2023/01/15 06:52:16;;;;;;;3.53;0.70;;;8.30;72.60;;;;;;5077008;28;20024;-63
2023/01/15 06:54:42;;;;;;;2.72;1.13;;;8.30;72.60;;;;;;5099287;28;20043;-63
2023/01/15 06:57:08;;;;;;;2.63;1.05;;;8.30;72.60;;;;;;5079914;28;20085;-66
2023/01/15 06:59:33;;;;;;;2.90;0.80;;;8.30;72.30;;;;;;5083743;28;20056;-67
2023/01/15 07:01:59;;;;;;;3.55;1.33;;;8.30;72.20;;;;;;5103147;28;20024;-70
2023/01/15 07:04:25;;;;;;;6.60;0.85;;;8.30;72.20;;;;;;5094673;28;20104;-63
2023/01/15 07:06:51;;;;;;;1.45;1.08;;;8.40;72.40;;;;;;5095019;28;20036;-68
2023/01/15 07:09:17;;;;;;;3.67;1.23;;;8.40;72.30;;;;;;5100041;28;20027;-67
2023/01/15 07:11:48;;;;;;;0.93;0.57;;;8.40;72.40;;;;;;5072493;28;20470;-69
2023/01/15 07:14:19;;;;;;;4.90;0.97;;;8.30;72.70;;;;;;5098625;28;20040;-69
2023/01/15 07:16:45;;;;;;;2.25;0.95;;;8.30;72.90;;;;;;5088854;28;20377;-69
2023/01/15 07:19:10;;;;;;;1.13;0.60;;;8.20;73.10;;;;;;5088478;28;20103;-69
2023/01/15 07:21:36;;;;;;;6.57;0.90;;;8.20;73.20;;;;;;5083714;28;20079;-67
2023/01/15 07:24:02;;;;;;;3.88;0.95;;;8.10;73.30;;;;;;5088348;28;20028;-67
2023/01/15 07:26:27;;;;;;;1.00;0.55;;;8.00;73.50;;;;;;5070846;28;20482;-66
2023/01/15 07:28:53;;;;;;;0.82;0.70;;;8.00;73.80;;;;;;5083283;28;20035;-68
2023/01/15 07:31:19;;;;;;;1.00;0.60;;;8.00;74.00;;;;;;5082378;28;20570;-64
2023/01/15 07:33:45;;;;;;;5.68;1.02;;;8.00;74.10;;;;;;5088846;28;20020;-65
2023/01/15 07:36:10;;;;;;;4.53;0.80;;;8.00;74.30;;;;;;5097111;28;20024;-68
2023/01/15 07:38:36;;;;;;;8.82;0.90;;;7.90;74.40;;;;;;5098941;28;20024;-69
2023/01/15 07:51:59;;;;;;;3.38;1.42;;;7.80;73.80;;;;;;5102592;28;20637;-63
2023/01/15 07:54:25;;;;;;;1.75;1.00;;;7.80;73.70;;;;;;5093296;28;20079;-63
2023/01/15 07:56:52;;;;;;;7.78;1.00;;;7.80;73.70;;;;;;5093806;28;20035;-64
2023/01/15 07:59:18;;;;;;;2.33;0.85;;;7.80;73.50;;;;;;5082608;28;20478;-60
2023/01/15 08:01:44;;;;;;;6.35;1.60;;;7.80;73.50;;;;;;5090171;28;20074;-60
2023/01/15 08:04:10;;;;;;;2.58;0.85;;;7.80;73.50;;;;;;5079634;28;20040;-61
2023/01/15 08:06:36;;;;;;;6.63;1.15;;;7.80;73.40;;;;;;5078810;28;20044;-65
2023/01/15 08:09:03;;;;;;;3.45;1.08;;;7.90;73.40;;;;;;5078122;28;20028;-64
2023/01/15 08:16:57;;;;;;;2.65;0.85;;;7.90;73.00;;;;;;5085901;28;20401;-66
2023/01/15 08:19:24;;;;;;;2.20;0.90;;;7.90;73.00;;;;;;5084910;28;20411;-66
2023/01/15 08:21:50;;;;;;;1.08;0.57;;;7.90;73.40;;;;;;5082830;28;20035;-66
2023/01/15 08:24:16;;;;;;;5.25;1.05;;;7.90;72.80;;;;;;5072624;28;20036;-68
2023/01/15 08:26:42;;;;;;;2.08;1.00;;;7.80;72.50;;;;;;5082215;28;20028;-66
2023/01/15 08:29:08;;;;;;;2.78;0.98;;;7.80;72.50;;;;;;5086127;28;20045;-65
2023/01/15 08:31:33;;;;;;;4.70;0.77;;;7.90;72.50;;;;;;5083313;28;20066;-66
2023/01/15 08:33:59;;;;;;;6.95;1.00;;;7.90;72.60;;;;;;5084912;28;20056;-66
2023/01/15 08:36:25;;;;;;;1.95;0.93;;;7.90;72.30;;;;;;5083991;28;20111;-63
2023/01/15 08:38:51;;;;;;;1.65;0.68;;;7.90;72.30;;;;;;5088801;28;20028;-63
2023/01/15 08:41:17;;;;;;;5.22;1.08;;;7.90;71.80;;;;;;5092264;28;20080;-64
2023/01/15 08:43:44;;;;;;;3.83;1.27;;;7.90;71.50;;;;;;5089746;28;20031;-68
2023/01/15 08:46:10;;;;;;;1.38;0.75;;;7.90;71.50;;;;;;5084001;28;20025;-68
2023/01/15 08:48:36;;;;;;;4.50;0.93;;;7.90;71.70;;;;;;5066011;28;20158;-66
2023/01/15 08:51:07;;;;;;;2.25;0.90;;;7.90;71.40;;;;;;5091294;28;20036;-68
2023/01/15 08:53:33;;;;;;;1.63;0.70;;;7.90;71.30;;;;;;5082001;28;20459;-68
2023/01/15 08:55:59;;;;;;;1.80;0.50;;;8.00;71.50;;;;;;5092252;28;20364;-68
2023/01/15 08:58:31;;;;;;;5.63;1.02;;;8.10;71.60;;;;;;5086047;28;20077;-67
2023/01/15 09:01:07;;;;;;;3.38;1.35;;;8.10;71.30;;;;;;5090249;28;20240;-62
2023/01/15 09:03:33;;;;;;;2.35;0.73;;;8.10;71.40;;;;;;5087823;28;20352;-61
2023/01/15 09:06:00;;;;;;;3.15;1.52;;;8.10;71.10;;;;;;5105763;28;20694;-68
2023/01/15 09:08:26;;;;;;;1.40;0.75;;;8.10;70.70;;;;;;5093911;28;20411;-61
2023/01/15 09:10:59;;;;;;;1.00;0.85;;;8.10;70.20;;;;;;5068867;28;20020;-62
2023/01/15 09:13:27;;;;;;;6.88;0.70;;;8.10;70.10;;;;;;5110576;28;20019;-62
2023/01/15 09:15:53;;;;;;;0.63;0.50;;;8.10;69.90;;;;;;5090129;28;20504;-62
2023/01/15 09:18:19;;;;;;;1.10;0.73;;;8.10;70.00;;;;;;5104887;28;20012;-67
2023/01/15 09:20:46;;;;;;;1.90;1.02;;;8.10;69.80;;;;;;5075719;28;20035;-62
2023/01/15 09:23:12;;;;;;;3.45;0.90;;;8.10;69.60;;;;;;5111763;28;20024;-61
2023/01/15 09:25:38;;;;;;;2.70;1.13;;;8.10;69.80;;;;;;5100317;28;20402;-67
2023/01/15 09:28:04;;;;;;;1.90;1.13;;;8.10;69.80;;;;;;5099274;28;20042;-67
2023/01/15 09:30:29;;;;;;;5.15;1.10;;;8.20;69.80;;;;;;5099074;28;20046;-61
2023/01/15 09:32:55;;;;;;;11.50;1.65;;;8.10;69.50;;;;;;5107602;28;20115;-61
2023/01/15 09:35:23;;;;;;;1.85;1.30;;;8.20;69.10;;;;;;5094279;28;20028;-61
2023/01/15 09:37:53;;;;;;;5.85;1.05;;;8.20;69.30;;;;;;5090824;28;20032;-67
2023/01/15 09:40:56;;;;;;;1.70;1.05;;;8.20;69.40;;;;;;5104163;28;20036;-68
2023/01/15 09:43:31;;;;;;;;;;;8.30;69.10;;;;;;5101311;27;20048;-68
2023/01/15 09:46:14;;;;;;;1.27;0.68;;;8.20;69.20;;;;;;5099781;28;20358;-68
2023/01/15 09:48:47;;;;;;;4.70;1.02;;;8.20;69.50;;;;;;5086487;28;20451;-67
2023/01/15 09:51:41;;;;;;;3.28;0.98;;;8.30;69.60;;;;;;5102116;28;20495;-67
2023/01/15 09:54:40;;;;;;;0.60;0.60;;;8.40;69.50;;;;;;5074559;28;20514;-67
2023/01/15 09:57:14;;;;;;;2.33;1.02;;;8.40;69.20;;;;;;5097832;28;20560;-61
2023/01/15 09:59:46;;;;;;;3.88;0.90;;;8.40;69.20;;;;;;5083954;28;20077;-61
2023/01/15 10:02:23;;;;;;;2.70;1.13;;;8.40;69.40;;;;;;5091890;28;20421;-61
2023/01/15 10:04:56;;;;;;;9.20;1.38;;;8.50;69.30;;;;;;5082312;28;20039;-66
2023/01/15 10:07:42;;;;;;;2.35;0.60;;;8.60;68.80;;;;;;5080229;28;20036;-62
2023/01/15 10:10:16;;;;;;;2.00;1.10;;;8.70;68.80;;;;;;5060418;28;20387;-67
2023/01/15 10:12:44;;;;;;;3.35;0.90;;;8.70;68.40;;;;;;5061155;28;20036;-66
2023/01/15 10:15:13;;;;;;;3.75;1.00;;;8.80;68.80;;;;;;5084752;28;20363;-67
2023/01/15 10:17:45;;;;;;;1.80;0.77;;;8.90;68.30;;;;;;5071825;28;20070;-67
2023/01/15 10:20:21;;;;;;;2.78;1.45;;;8.90;68.30;;;;;;5073893;28;20043;-68
2023/01/15 10:23:08;;;;;;;5.00;1.65;;;9.00;68.40;;;;;;5087419;28;20130;-62
2023/01/15 10:25:46;;;;;;;2.17;0.93;;;9.10;67.40;;;;;;5085791;28;20559;-62
2023/01/15 10:28:22;;;;;;;1.10;0.88;;;9.10;67.50;;;;;;5086791;28;20031;-62
2023/01/15 10:30:54;;;;;;;15.80;1.35;;;9.10;67.20;;;;;;5082232;28;20423;-62
2023/01/15 10:33:43;;;;;;;2.23;1.07;;;9.20;67.00;;;;;;5089665;28;20020;-61
2023/01/15 10:36:44;;;;;;;2.45;0.63;;;9.50;67.10;;;;;;5092801;28;20031;-62
2023/01/15 10:39:36;;;;;;;1.38;0.75;;;10.00;65.90;;;;;;5084056;28;20046;-62
2023/01/15 10:42:33;;;;;;;3.07;1.10;;;11.20;62.60;;;;;;5086256;28;20043;-62
2023/01/15 10:45:16;;;;;;;3.90;0.98;;;12.30;58.50;;;;;;5061085;28;20307;-61
2023/01/15 10:47:47;;;;;;;3.63;1.10;;;12.30;58.20;;;;;;5088620;28;20030;-61
2023/01/15 10:50:19;;;;;;;3.13;1.45;;;12.50;57.60;;;;;;5093536;28;20028;-66
2023/01/15 10:52:50;;;;;;;;;;;11.90;58.00;;;;;;5090451;28;20023;-66
2023/01/15 10:55:25;;;;;;;1.15;0.70;;;11.20;59.00;;;;;;5086515;28;19978;-67
2023/01/15 10:58:11;;;;;;;4.25;0.95;;;10.80;61.20;;;;;;5087612;28;20032;-66
2023/01/15 11:00:38;;;;;;;2.95;0.73;;;11.20;60.80;;;;;;5036361;28;20378;-67
2023/01/15 11:03:17;;;;;;;4.18;0.93;;;11.70;59.10;;;;;;5082908;28;20024;-66
2023/01/15 11:05:45;;;;;;;1.25;0.70;;;11.40;58.40;;;;;;5085476;28;20032;-67
2023/01/15 11:08:31;;;;;;;2.03;0.88;;;10.90;60.00;;;;;;5086022;28;20410;-66
2023/01/15 11:11:13;;;;;;;8.73;1.17;;;10.40;61.20;;;;;;5086963;28;20032;-67
2023/01/15 11:21:52;;;;;;;1.58;0.55;;;9.80;63.70;;;;;;5087242;28;20406;-67
2023/01/15 11:24:18;;;;;;;1.33;0.63;;;10.50;62.50;;;;;;5085130;28;20031;-67
2023/01/15 11:26:51;;;;;;;2.72;1.00;;;11.00;60.50;;;;;;5087028;28;20024;-61
2023/01/15 11:29:32;;;;;;;1.60;1.13;;;11.10;60.30;;;;;;5078483;28;20527;-61
2023/01/15 11:31:58;;;;;;;7.50;1.20;;;10.80;60.80;;;;;;5087461;28;20033;-62
2023/01/15 11:34:24;;;;;;;2.00;0.85;;;10.40;61.90;;;;;;5062994;28;20031;-67
2023/01/15 11:37:02;;;;;;;4.97;1.45;;;11.00;62.00;;;;;;5079049;28;20395;-61
2023/01/15 11:39:30;;;;;;;3.22;0.80;;;11.30;60.30;;;;;;5088012;28;20012;-62
2023/01/15 11:53:14;;;;;;;5.07;1.25;;;11.30;60.40;;;;;;5084429;28;20054;-67
2023/01/15 11:55:54;;;;;;;3.50;0.77;;;10.70;62.10;;;;;;5086938;28;20036;-67
2023/01/15 11:58:20;;;;;;;11.07;1.20;;;10.30;63.50;;;;;;5088545;28;20028;-67
2023/01/15 12:00:50;;;;;;;5.32;1.20;;;10.00;64.90;;;;;;5092506;28;20708;-67
2023/01/15 12:03:19;;;;;;;4.40;1.42;;;9.70;65.70;;;;;;5084213;28;20600;-62
2023/01/15 12:05:52;;;;;;;6.78;1.35;;;9.50;68.20;;;;;;5086022;28;20110;-66
2023/01/15 12:08:31;;;;;;;5.05;1.25;;;9.20;70.30;;;;;;5085809;28;20042;-67
2023/01/15 12:11:22;;;;;;;1.08;0.77;;;9.00;71.90;;;;;;5085952;28;20387;-61
2023/01/15 12:13:59;;;;;;;6.38;0.98;;;8.90;72.60;;;;;;5093742;28;20023;-69
2023/01/15 12:16:44;;;;;;;2.70;0.80;;;8.80;72.30;;;;;;5093355;28;20115;-68
2023/01/15 12:19:35;;;;;;;1.58;0.70;;;8.90;72.10;;;;;;5093521;28;20111;-69
2023/01/15 12:22:19;;;;;;;2.45;0.75;;;8.80;72.90;;;;;;5090044;28;20032;-69
2023/01/15 12:24:51;;;;;;;1.73;0.90;;;8.90;73.70;;;;;;5088086;28;20160;-69
2023/01/15 12:27:32;;;;;;;2.65;0.80;;;9.30;73.00;;;;;;5089352;28;20032;-62
2023/01/15 12:30:00;;;;;;;1.55;0.70;;;9.50;71.00;;;;;;5073203;28;20709;-62
2023/01/15 12:32:37;;;;;;;4.43;0.90;;;9.50;70.30;;;;;;5092214;28;20516;-62
2023/01/15 12:35:13;;;;;;;0.93;0.70;;;9.50;70.20;;;;;;5088087;28;20028;-63
2023/01/15 12:38:14;;;;;;;1.52;0.90;;;9.60;69.60;;;;;;5087718;28;20062;-63
2023/01/15 12:40:56;;;;;;;2.30;1.00;;;9.50;69.30;;;;;;5059597;28;20406;-67
2023/01/15 12:46:16;;;;;;;1.73;1.17;;;9.20;70.80;;;;;;5083388;28;20070;-63
2023/01/15 12:48:50;;;;;;;1.08;0.50;;;9.10;72.00;;;;;;5093693;28;20028;-64
2023/01/15 12:51:33;;;;;;;1.73;0.68;;;8.90;72.60;;;;;;5086853;28;20024;-63
2023/01/15 12:54:05;;;;;;;0.55;0.45;;;8.80;73.50;;;;;;5069137;28;20380;-63
2023/01/15 12:56:54;;;;;;;0.98;0.60;;;8.70;73.80;;;;;;5093069;28;20581;-63
2023/01/15 12:59:20;;;;;;;0.73;0.73;;;8.60;74.00;;;;;;5080898;28;20120;-70
2023/01/15 13:02:32;;;;;;;3.95;1.13;;;8.60;74.40;;;;;;5089485;28;20520;-66
2023/01/15 13:05:15;;;;;;;2.50;1.00;;;8.60;75.10;;;;;;5055464;28;20122;-68
2023/01/15 13:07:48;;;;;;;3.50;0.88;;;8.50;75.40;;;;;;5090383;28;20107;-64
2023/01/15 13:10:25;;;;;;;9.13;0.98;;;8.40;75.70;;;;;;5099104;28;20038;-60
2023/01/15 13:12:53;;;;;;;2.28;1.05;;;8.50;75.90;;;;;;5079363;28;20020;-60
2023/01/15 13:15:25;;;;;;;2.67;0.90;;;8.60;75.40;;;;;;5094055;28;20483;-65
2023/01/15 13:18:05;;;;;;;1.45;0.77;;;8.80;74.40;;;;;;5090887;28;20101;-65
2023/01/15 13:20:51;;;;;;;2.10;1.05;;;8.90;73.90;;;;;;5085833;28;20036;-65
2023/01/15 13:23:45;;;;;;;1.90;1.05;;;8.90;73.30;;;;;;5065849;28;20032;-60
2023/01/15 13:26:18;;;;;;;1.05;0.82;;;8.90;73.10;;;;;;5098807;28;20106;-60
2023/01/15 13:29:18;;;;;;;1.60;0.80;;;8.90;73.10;;;;;;5088957;28;20478;-61
2023/01/15 13:31:59;;;;;;;1.35;0.65;;;8.90;73.00;;;;;;5073784;28;20028;-60
2023/01/15 13:34:39;;;;;;;1.98;0.93;;;8.90;72.80;;;;;;5091237;28;20028;-59
2023/01/15 13:37:24;;;;;;;6.85;1.75;;;8.90;72.90;;;;;;5098761;28;20403;-59
2023/01/15 13:39:53;;;;;;;0.47;0.47;;;8.90;73.50;;;;;;5098190;28;20107;-60
2023/01/15 13:42:36;;;;;;;4.03;1.45;;;8.80;74.20;;;;;;5093031;28;20012;-59
2023/01/15 13:45:05;;;;;;;2.85;1.13;;;8.70;74.40;;;;;;5080004;28;20491;-59
2023/01/15 13:47:34;;;;;;;1.45;0.77;;;8.80;74.20;;;;;;5082415;28;20028;-59
2023/01/15 13:50:05;;;;;;;6.43;1.90;;;8.80;73.90;;;;;;5089374;28;20103;-60
2023/01/15 13:52:36;;;;;;;1.73;0.63;;;8.80;73.60;;;;;;5068808;28;20039;-59
2023/01/15 13:55:22;;;;;;;1.85;1.15;;;8.80;74.30;;;;;;5094201;28;20016;-64
2023/01/15 13:57:49;;;;;;;2.65;1.15;;;8.80;74.60;;;;;;5072810;28;20028;-59
2023/01/15 14:00:36;;;;;;;3.83;1.05;;;8.70;75.00;;;;;;5093427;28;20042;-59
2023/01/15 14:03:27;;;;;;;9.02;1.35;;;8.70;75.00;;;;;;5076295;28;20100;-59
2023/01/15 14:05:55;;;;;;;3.63;1.00;;;8.70;74.70;;;;;;5071521;28;20028;-59
2023/01/15 14:08:26;;;;;;;3.95;1.10;;;8.60;75.00;;;;;;5091967;28;20475;-59
2023/01/15 14:10:54;;;;;;;1.42;0.88;;;8.60;75.40;;;;;;5085816;28;20487;-58
2023/01/15 14:13:41;;;;;;;8.00;0.70;;;8.60;75.90;;;;;;5081760;28;20063;-60
2023/01/15 14:16:34;;;;;;;2.20;0.90;;;8.60;76.50;;;;;;5063175;28;20185;-60